createdAt,value
2023-01-22T00:00:41.995Z,100731.88
2023-01-22T00:01:44.516Z,100743.34
2023-01-22T00:02:49.337Z,100744.38
2023-01-22T00:03:54.049Z,100740.72
2023-01-22T00:04:57.211Z,100740.22
2023-01-22T00:05:59.839Z,100739.19
2023-01-22T00:07:04.755Z,100738.38
2023-01-22T00:08:07.328Z,100742.78
2023-01-22T00:09:10.010Z,100734.19
2023-01-22T00:10:13.249Z,100737.28
2023-01-22T00:11:17.120Z,100734.41
2023-01-22T00:12:19.539Z,100729.94
2023-01-22T00:13:24.562Z,100729.69
2023-01-22T00:14:27.189Z,100734.91
2023-01-22T00:15:29.877Z,100733.41
2023-01-22T00:16:32.482Z,100735.97
2023-01-22T00:17:35.145Z,100739.06
2023-01-22T00:18:37.745Z,100748.75
2023-01-22T00:19:42.833Z,100745.94
2023-01-22T00:20:49.797Z,100745.16
2023-01-22T00:21:54.632Z,100741.19
2023-01-22T00:22:57.210Z,100738.13
2023-01-22T00:24:01.367Z,100740.69
2023-01-22T00:25:05.665Z,100734.66
2023-01-22T00:26:12.117Z,100734.88
2023-01-22T00:27:16.761Z,100726.59
2023-01-22T00:28:19.404Z,100729.44
2023-01-22T00:29:22.960Z,100724.22
2023-01-22T00:30:25.585Z,100725.53
2023-01-22T00:31:28.118Z,100718.72
2023-01-22T00:32:30.677Z,100725.00
2023-01-22T00:33:34.155Z,100718.19
2023-01-22T00:34:37.255Z,100712.22
2023-01-22T00:35:39.984Z,100713.53
2023-01-22T00:36:42.561Z,100719.22
2023-01-22T00:37:47.711Z,100722.34
2023-01-22T00:38:51.578Z,100730.94
2023-01-22T00:39:54.079Z,100730.66
2023-01-22T00:40:56.782Z,100723.91
2023-01-22T00:41:59.307Z,100728.34
2023-01-22T00:43:01.770Z,100716.31
2023-01-22T00:44:04.326Z,100722.56
2023-01-22T00:45:07.530Z,100719.75
2023-01-22T00:46:12.928Z,100715.56
2023-01-22T00:47:17.405Z,100716.84
2023-01-22T00:48:20.025Z,100711.63
2023-01-22T00:49:25.498Z,100710.31
2023-01-22T00:50:28.558Z,100712.41
2023-01-22T00:51:33.557Z,100706.97
2023-01-22T00:52:37.974Z,100712.84
2023-01-22T00:53:41.787Z,100717.06
2023-01-22T00:54:45.909Z,100716.78
2023-01-22T00:55:56.616Z,100712.91
2023-01-22T00:56:59.685Z,100715.97
2023-01-22T00:58:05.110Z,100711.38
2023-01-22T00:59:10.750Z,100712.38
2023-01-22T01:00:18.861Z,100719.59
2023-01-22T01:01:23.771Z,100721.75
2023-01-22T01:02:26.319Z,100725.16
2023-01-22T01:03:32.927Z,100717.84
2023-01-22T01:04:35.792Z,100716.50
2023-01-22T01:05:38.295Z,100730.59
2023-01-22T01:06:41.279Z,100719.88
2023-01-22T01:07:52.820Z,100722.72
2023-01-22T01:08:57.472Z,100726.13
2023-01-22T01:10:00.081Z,100713.56
2023-01-22T01:11:13.603Z,100729.97
2023-01-22T01:12:16.392Z,100720.34
2023-01-22T01:13:19.611Z,100712.50
2023-01-22T01:14:22.315Z,100702.34
2023-01-22T01:15:25.005Z,100703.69
2023-01-22T01:16:32.743Z,100714.84
2023-01-22T01:17:36.357Z,100712.50
2023-01-22T01:18:39.236Z,100706.00
2023-01-22T01:19:50.405Z,100711.47
2023-01-22T01:20:57.150Z,100720.13
2023-01-22T01:22:04.281Z,100706.00
2023-01-22T01:23:10.415Z,100715.91
2023-01-22T01:24:13.354Z,100715.28
2023-01-22T01:25:15.996Z,100707.22
2023-01-22T01:26:18.487Z,100710.38
2023-01-22T01:27:21.554Z,100714.75
2023-01-22T01:28:25.176Z,100711.13
2023-01-22T01:29:28.125Z,100717.09
2023-01-22T01:30:30.633Z,100719.94
2023-01-22T01:31:33.352Z,100713.97
2023-01-22T01:32:35.881Z,100723.13
2023-01-22T01:33:38.694Z,100713.00
2023-01-22T01:34:41.220Z,100716.56
2023-01-22T01:35:43.675Z,100717.41
2023-01-22T01:36:49.588Z,100714.50
2023-01-22T01:37:53.748Z,100709.28
2023-01-22T01:38:56.765Z,100716.28
2023-01-22T01:39:59.341Z,100705.84
2023-01-22T01:41:02.293Z,100716.31
2023-01-22T01:42:04.799Z,100706.69
2023-01-22T01:43:16.914Z,100710.84
2023-01-22T01:44:21.837Z,100714.53
2023-01-22T01:45:30.441Z,100713.97
2023-01-22T01:46:35.423Z,100716.03
2023-01-22T01:47:38.054Z,100708.59
2023-01-22T01:48:46.999Z,100709.66
2023-01-22T01:49:56.578Z,100721.63
2023-01-22T01:51:05.273Z,100709.94
2023-01-22T01:52:12.970Z,100709.13
2023-01-22T01:53:15.809Z,100709.44
2023-01-22T01:54:18.450Z,100716.00
2023-01-22T01:55:27.092Z,100720.44
2023-01-22T01:56:39.701Z,100725.63
2023-01-22T01:57:43.725Z,100720.16
2023-01-22T01:58:54.869Z,100717.06
2023-01-22T01:59:59.224Z,100716.88
2023-01-22T02:01:05.962Z,100712.97
2023-01-22T02:02:09.085Z,100709.06
2023-01-22T02:03:11.952Z,100713.00
2023-01-22T02:04:15.474Z,100714.00
2023-01-22T02:05:20.787Z,100716.63
2023-01-22T02:06:23.735Z,100706.16
2023-01-22T02:07:26.195Z,100712.19
2023-01-22T02:08:28.841Z,100706.75
2023-01-22T02:09:32.685Z,100701.00
2023-01-22T02:10:42.622Z,100699.69
2023-01-22T02:11:45.819Z,100705.97
2023-01-22T02:12:48.173Z,100709.94
2023-01-22T02:14:00.095Z,100702.41
2023-01-22T02:15:04.261Z,100699.56
2023-01-22T02:16:08.074Z,100701.09
2023-01-22T02:17:16.814Z,100702.72
2023-01-22T02:18:19.506Z,100705.28
2023-01-22T02:19:24.239Z,100691.75
2023-01-22T02:20:27.639Z,100696.41
2023-01-22T02:21:33.676Z,100696.41
2023-01-22T02:22:39.703Z,100692.28
2023-01-22T02:23:42.234Z,100693.34
2023-01-22T02:24:44.723Z,100691.50
2023-01-22T02:25:47.346Z,100691.25
2023-01-22T02:26:49.878Z,100694.38
2023-01-22T02:27:55.564Z,100695.94
2023-01-22T02:28:58.997Z,100699.56
2023-01-22T02:30:06.149Z,100712.59
2023-01-22T02:31:10.710Z,100715.81
2023-01-22T02:32:13.988Z,100705.63
2023-01-22T02:33:16.989Z,100712.41
2023-01-22T02:34:24.663Z,100698.88
2023-01-22T02:35:27.567Z,100708.75
2023-01-22T02:36:31.672Z,100697.28
2023-01-22T02:37:34.175Z,100707.41
2023-01-22T02:38:37.220Z,100699.91
2023-01-22T02:39:40.009Z,100704.31
2023-01-22T02:40:49.494Z,100704.81
2023-01-22T02:41:54.915Z,100707.13
2023-01-22T02:42:57.810Z,100709.00
2023-01-22T02:44:00.534Z,100709.22
2023-01-22T02:45:05.163Z,100712.63
2023-01-22T02:46:07.773Z,100716.53
2023-01-22T02:47:10.482Z,100717.03
2023-01-22T02:48:22.289Z,100715.72
2023-01-22T02:49:24.898Z,100721.72
2023-01-22T02:50:27.456Z,100714.16
2023-01-22T02:51:30.067Z,100723.78
2023-01-22T02:52:32.993Z,100718.84
2023-01-22T02:53:35.723Z,100726.13
2023-01-22T02:54:38.287Z,100723.78
2023-01-22T02:55:41.014Z,100723.00
2023-01-22T02:56:44.756Z,100728.72
2023-01-22T02:57:48.419Z,100723.50
2023-01-22T02:58:52.329Z,100719.28
2023-01-22T02:59:55.968Z,100723.00
2023-01-22T03:00:58.515Z,100718.81
2023-01-22T03:02:01.731Z,100721.94
2023-01-22T03:03:17.571Z,100716.16
2023-01-22T03:04:24.483Z,100707.78
2023-01-22T03:05:26.990Z,100717.41
2023-01-22T03:06:30.257Z,100722.13
2023-01-22T03:07:47.904Z,100721.09
2023-01-22T03:08:53.328Z,100712.47
2023-01-22T03:09:56.496Z,100724.72
2023-01-22T03:10:59.466Z,100725.28
2023-01-22T03:12:09.128Z,100727.94
2023-01-22T03:13:39.346Z,100725.84
2023-01-22T03:15:03.336Z,100719.06
2023-01-22T03:16:24.839Z,100717.19
2023-01-22T03:17:46.521Z,100706.78
2023-01-22T03:19:09.753Z,100713.31
2023-01-22T03:20:33.432Z,100705.75
2023-01-22T03:21:45.444Z,100710.72
2023-01-22T03:22:47.954Z,100699.25
2023-01-22T03:23:54.691Z,100700.28
2023-01-22T03:24:58.867Z,100694.53
2023-01-22T03:26:04.230Z,100692.16
2023-01-22T03:27:07.255Z,100684.38
2023-01-22T03:28:16.778Z,100684.13
2023-01-22T03:29:24.500Z,100690.13
2023-01-22T03:30:27.591Z,100688.06
2023-01-22T03:31:31.257Z,100687.00
2023-01-22T03:32:33.814Z,100684.94
2023-01-22T03:33:36.955Z,100680.03
2023-01-22T03:34:42.720Z,100685.47
2023-01-22T03:35:45.298Z,100691.97
2023-01-22T03:36:53.400Z,100675.09
2023-01-22T03:37:56.073Z,100669.88
2023-01-22T03:38:58.733Z,100665.44
2023-01-22T03:40:01.430Z,100683.44
2023-01-22T03:41:14.881Z,100693.84
2023-01-22T03:42:19.366Z,100701.16
2023-01-22T03:43:22.070Z,100698.56
2023-01-22T03:44:24.697Z,100702.44
2023-01-22T03:45:29.745Z,100699.59
2023-01-22T03:46:32.815Z,100698.53
2023-01-22T03:47:35.524Z,100703.75
2023-01-22T03:48:52.669Z,100699.06
2023-01-22T03:49:55.467Z,100696.97
2023-01-22T03:51:03.785Z,100694.34
2023-01-22T03:52:06.401Z,100693.59
2023-01-22T03:53:09.295Z,100691.75
2023-01-22T03:54:13.282Z,100690.25
2023-01-22T03:55:16.000Z,100690.00
2023-01-22T03:56:21.526Z,100685.81
2023-01-22T03:57:28.018Z,100688.44
2023-01-22T03:58:32.236Z,100685.03
2023-01-22T03:59:34.914Z,100690.75
2023-01-22T04:00:37.870Z,100694.34
2023-01-22T04:01:42.111Z,100692.03
2023-01-22T04:02:44.700Z,100695.69
2023-01-22T04:03:55.703Z,100680.81
2023-01-22T04:05:01.597Z,100681.84
2023-01-22T04:06:05.855Z,100675.59
2023-01-22T04:07:11.755Z,100678.72
2023-01-22T04:08:15.569Z,100675.53
2023-01-22T04:09:20.341Z,100672.19
2023-01-22T04:10:24.124Z,100670.34
2023-01-22T04:11:26.744Z,100674.53
2023-01-22T04:12:29.557Z,100676.06
2023-01-22T04:13:33.880Z,100678.41
2023-01-22T04:14:36.837Z,100680.75
2023-01-22T04:15:39.946Z,100675.31
2023-01-22T04:16:59.768Z,100674.50
2023-01-22T04:18:23.088Z,100676.06
2023-01-22T04:19:40.099Z,100676.56
2023-01-22T04:21:24.308Z,100688.50
2023-01-22T04:22:29.816Z,100682.00
2023-01-22T04:23:32.731Z,100686.66
2023-01-22T04:24:36.620Z,100683.63
2023-01-22T04:25:40.788Z,100688.84
2023-01-22T04:26:43.703Z,100684.66
2023-01-22T04:27:51.001Z,100684.94
2023-01-22T04:28:56.333Z,100690.94
2023-01-22T04:29:59.992Z,100691.44
2023-01-22T04:31:04.475Z,100691.69
2023-01-22T04:32:28.074Z,100687.53
2023-01-22T04:33:50.921Z,100694.25
2023-01-22T04:35:01.555Z,100697.88
2023-01-22T04:36:34.144Z,100706.19
2023-01-22T04:37:36.886Z,100704.69
2023-01-22T04:38:42.995Z,100706.78
2023-01-22T04:39:45.475Z,100718.75
2023-01-22T04:40:54.876Z,100720.06
2023-01-22T04:41:58.301Z,100723.66
2023-01-22T04:43:06.707Z,100729.66
2023-01-22T04:44:09.308Z,100729.16
2023-01-22T04:45:14.113Z,100721.81
2023-01-22T04:46:17.098Z,100732.28
2023-01-22T04:47:20.906Z,100730.44
2023-01-22T04:48:24.676Z,100736.19
2023-01-22T04:49:27.333Z,100723.41
2023-01-22T04:50:33.331Z,100732.31
2023-01-22T04:51:39.794Z,100726.59
2023-01-22T04:52:42.407Z,100735.69
2023-01-22T04:53:45.622Z,100737.78
2023-01-22T04:54:52.054Z,100746.63
2023-01-22T04:55:54.781Z,100745.06
2023-01-22T04:56:57.855Z,100748.25
2023-01-22T04:58:01.978Z,100753.97
2023-01-22T04:59:04.998Z,100753.22
2023-01-22T05:00:09.172Z,100755.59
2023-01-22T05:01:12.540Z,100754.28
2023-01-22T05:02:15.080Z,100751.91
2023-01-22T05:03:18.152Z,100764.41
2023-01-22T05:04:21.985Z,100760.53
2023-01-22T05:05:27.232Z,100761.00
2023-01-22T05:06:31.171Z,100766.03
2023-01-22T05:07:34.533Z,100780.88
2023-01-22T05:08:37.148Z,100775.16
2023-01-22T05:09:39.866Z,100780.88
2023-01-22T05:10:42.341Z,100780.88
2023-01-22T05:11:47.244Z,100775.66
2023-01-22T05:12:50.713Z,100783.25
2023-01-22T05:13:54.616Z,100779.84
2023-01-22T05:14:57.210Z,100778.03
2023-01-22T05:15:59.812Z,100780.88
2023-01-22T05:17:02.506Z,100787.16
2023-01-22T05:18:05.339Z,100788.47
2023-01-22T05:19:11.614Z,100786.13
2023-01-22T05:20:14.114Z,100790.81
2023-01-22T05:21:16.629Z,100784.28
2023-01-22T05:22:19.134Z,100795.47
2023-01-22T05:23:23.281Z,100787.94
2023-01-22T05:24:25.923Z,100803.84
2023-01-22T05:25:29.035Z,100795.22
2023-01-22T05:26:33.954Z,100793.94
2023-01-22T05:27:41.065Z,100804.88
2023-01-22T05:28:49.369Z,100801.53
2023-01-22T05:30:04.507Z,100805.94
2023-01-22T05:31:30.572Z,100796.03
2023-01-22T05:32:38.450Z,100802.59
2023-01-22T05:33:42.852Z,100810.09
2023-01-22T05:34:47.492Z,100808.03
2023-01-22T05:36:00.801Z,100808.34
2023-01-22T05:37:08.691Z,100808.03
2023-01-22T05:38:11.518Z,100806.97
2023-01-22T05:39:16.102Z,100809.59
2023-01-22T05:40:21.211Z,100816.09
2023-01-22T05:41:24.155Z,100810.63
2023-01-22T05:42:28.786Z,100813.50
2023-01-22T05:43:32.023Z,100815.31
2023-01-22T05:44:41.474Z,100813.25
2023-01-22T05:45:44.094Z,100813.00
2023-01-22T05:47:04.763Z,100815.06
2023-01-22T05:48:16.454Z,100812.72
2023-01-22T05:49:28.199Z,100823.66
2023-01-22T05:50:32.363Z,100820.00
2023-01-22T05:51:44.065Z,100816.09
2023-01-22T05:52:46.995Z,100817.94
2023-01-22T05:53:49.779Z,100816.09
2023-01-22T05:54:52.279Z,100817.38
2023-01-22T05:55:54.710Z,100822.84
2023-01-22T05:56:57.941Z,100828.88
2023-01-22T05:58:01.600Z,100829.38
2023-01-22T05:59:04.413Z,100835.38
2023-01-22T06:00:08.793Z,100834.31
2023-01-22T06:01:18.875Z,100839.81
2023-01-22T06:02:25.211Z,100838.78
2023-01-22T06:03:29.099Z,100840.59
2023-01-22T06:04:32.865Z,100842.44
2023-01-22T06:05:37.355Z,100844.22
2023-01-22T06:06:43.531Z,100850.47
2023-01-22T06:07:45.991Z,100846.31
2023-01-22T06:08:52.767Z,100838.78
2023-01-22T06:09:57.693Z,100844.97
2023-01-22T06:11:13.249Z,100849.16
2023-01-22T06:12:19.941Z,100844.00
2023-01-22T06:13:22.867Z,100840.03
2023-01-22T06:14:31.686Z,100838.97
2023-01-22T06:15:35.454Z,100844.97
2023-01-22T06:16:51.072Z,100843.69
2023-01-22T06:18:14.887Z,100849.13
2023-01-22T06:19:17.912Z,100851.72
2023-01-22T06:20:26.632Z,100845.50
2023-01-22T06:21:29.074Z,100854.88
2023-01-22T06:22:32.417Z,100851.22
2023-01-22T06:23:37.472Z,100856.72
2023-01-22T06:24:41.287Z,100862.69
2023-01-22T06:25:45.523Z,100858.03
2023-01-22T06:26:55.487Z,100858.00
2023-01-22T06:28:05.001Z,100860.06
2023-01-22T06:29:08.715Z,100870.53
2023-01-22T06:30:12.445Z,100867.41
2023-01-22T06:31:15.047Z,100870.53
2023-01-22T06:32:17.909Z,100879.94
2023-01-22T06:33:20.481Z,100878.34
2023-01-22T06:34:23.387Z,100880.69
2023-01-22T06:35:27.001Z,100885.41
2023-01-22T06:36:30.221Z,100885.66
2023-01-22T06:37:33.607Z,100889.56
2023-01-22T06:38:39.176Z,100885.63
2023-01-22T06:39:43.880Z,100889.06
2023-01-22T06:40:58.209Z,100903.41
2023-01-22T06:42:00.857Z,100895.56
2023-01-22T06:43:10.683Z,100894.78
2023-01-22T06:44:14.385Z,100889.31
2023-01-22T06:45:17.965Z,100887.75
2023-01-22T06:46:26.093Z,100892.97
2023-01-22T06:47:51.816Z,100890.88
2023-01-22T06:48:54.655Z,100894.00
2023-01-22T06:49:58.347Z,100892.97
2023-01-22T06:51:01.523Z,100895.81
2023-01-22T06:52:07.390Z,100895.81
2023-01-22T06:53:11.181Z,100892.88
2023-01-22T06:54:13.738Z,100897.13
2023-01-22T06:55:16.550Z,100893.94
2023-01-22T06:56:19.039Z,100896.28
2023-01-22T06:57:21.647Z,100894.97
2023-01-22T06:58:24.130Z,100903.06
2023-01-22T06:59:26.763Z,100894.44
2023-01-22T07:00:29.616Z,100882.47
2023-01-22T07:01:32.120Z,100887.13
2023-01-22T07:02:34.912Z,100897.03
2023-01-22T07:03:37.415Z,100891.81
2023-01-22T07:04:39.805Z,100891.81
2023-01-22T07:05:42.620Z,100897.56
2023-01-22T07:06:45.742Z,100900.09
2023-01-22T07:07:48.669Z,100899.63
2023-01-22T07:08:52.697Z,100900.16
2023-01-22T07:09:56.545Z,100896.50
2023-01-22T07:11:00.135Z,100900.16
2023-01-22T07:12:02.616Z,100910.81
2023-01-22T07:13:05.167Z,100914.22
2023-01-22T07:14:07.753Z,100924.66
2023-01-22T07:15:10.437Z,100921.78
2023-01-22T07:16:13.027Z,100934.56
2023-01-22T07:17:15.486Z,100938.75
2023-01-22T07:18:22.097Z,100941.09
2023-01-22T07:19:24.699Z,100943.41
2023-01-22T07:20:27.330Z,100940.81
2023-01-22T07:21:29.910Z,100943.41
2023-01-22T07:22:35.395Z,100943.94
2023-01-22T07:23:38.992Z,100949.63
2023-01-22T07:24:41.568Z,100960.56
2023-01-22T07:25:46.173Z,100958.75
2023-01-22T07:26:49.563Z,100963.97
2023-01-22T07:27:52.114Z,100964.47
2023-01-22T07:28:54.947Z,100972.56
2023-01-22T07:29:57.413Z,100980.16
2023-01-22T07:31:00.081Z,100979.38
2023-01-22T07:32:02.875Z,100981.47
2023-01-22T07:33:05.318Z,100978.84
2023-01-22T07:34:08.018Z,100978.06
2023-01-22T07:35:10.497Z,100977.00
2023-01-22T07:36:13.105Z,100978.81
2023-01-22T07:37:15.820Z,100982.94
2023-01-22T07:38:18.316Z,100992.34
2023-01-22T07:39:20.917Z,100998.09
2023-01-22T07:40:24.496Z,100993.09
2023-01-22T07:41:27.053Z,101002.53
2023-01-22T07:42:29.583Z,101008.72
2023-01-22T07:43:32.712Z,101007.44
2023-01-22T07:44:37.164Z,100996.53
2023-01-22T07:45:39.710Z,100996.00
2023-01-22T07:46:49.718Z,100997.78
2023-01-22T07:47:59.626Z,100994.84
2023-01-22T07:49:02.262Z,100999.56
2023-01-22T07:50:05.215Z,101004.25
2023-01-22T07:51:08.437Z,101007.91
2023-01-22T07:52:11.085Z,101012.38
2023-01-22T07:53:13.644Z,101018.06
2023-01-22T07:54:18.486Z,101018.78
2023-01-22T07:55:21.734Z,101030.00
2023-01-22T07:56:24.556Z,101030.31
2023-01-22T07:57:27.271Z,101030.81
2023-01-22T07:58:32.303Z,101038.88
2023-01-22T07:59:35.526Z,101038.88
2023-01-22T08:00:38.280Z,101045.69
2023-01-22T08:01:41.053Z,101051.13
2023-01-22T08:02:43.688Z,101058.41
2023-01-22T08:03:46.280Z,101058.75
2023-01-22T08:04:48.658Z,101052.88
2023-01-22T08:05:51.165Z,101065.91
2023-01-22T08:06:53.737Z,101061.50
2023-01-22T08:07:56.174Z,101065.66
2023-01-22T08:08:59.693Z,101064.13
2023-01-22T08:10:02.859Z,101067.22
2023-01-22T08:11:08.495Z,101070.59
2023-01-22T08:12:11.927Z,101075.28
2023-01-22T08:13:14.642Z,101077.13
2023-01-22T08:14:17.288Z,101077.09
2023-01-22T08:15:19.974Z,101087.31
2023-01-22T08:16:22.900Z,101084.44
2023-01-22T08:17:25.501Z,101085.50
2023-01-22T08:18:28.266Z,101079.50
2023-01-22T08:19:31.170Z,101080.28
2023-01-22T08:20:33.950Z,101088.91
2023-01-22T08:21:36.571Z,101093.03
2023-01-22T08:22:39.112Z,101099.03
2023-01-22T08:23:47.500Z,101090.09
2023-01-22T08:24:51.562Z,101094.41
2023-01-22T08:25:54.101Z,101099.34
2023-01-22T08:26:56.470Z,101110.09
2023-01-22T08:28:03.021Z,101112.97
2023-01-22T08:29:07.693Z,101116.09
2023-01-22T08:30:13.902Z,101117.72
2023-01-22T08:31:27.407Z,101111.94
2023-01-22T08:32:31.201Z,101113.53
2023-01-22T08:33:34.140Z,101114.13
2023-01-22T08:34:36.656Z,101115.84
2023-01-22T08:35:39.974Z,101109.41
2023-01-22T08:36:42.688Z,101114.94
2023-01-22T08:37:45.332Z,101105.22
2023-01-22T08:38:50.602Z,101111.56
2023-01-22T08:39:53.240Z,101117.59
2023-01-22T08:40:55.800Z,101112.31
2023-01-22T08:41:59.076Z,101116.75
2023-01-22T08:43:01.611Z,101124.06
2023-01-22T08:44:04.075Z,101129.59
2023-01-22T08:45:07.859Z,101129.06
2023-01-22T08:46:10.382Z,101129.72
2023-01-22T08:47:13.488Z,101133.13
2023-01-22T08:48:16.836Z,101139.06
2023-01-22T08:49:21.633Z,101137.03
2023-01-22T08:50:24.370Z,101135.06
2023-01-22T08:51:27.101Z,101126.84
2023-01-22T08:52:29.775Z,101129.47
2023-01-22T08:53:32.446Z,101130.22
2023-01-22T08:54:35.012Z,101140.25
2023-01-22T08:55:37.638Z,101143.09
2023-01-22T08:56:40.080Z,101143.88
2023-01-22T08:57:42.602Z,101140.16
2023-01-22T08:58:49.338Z,101142.44
2023-01-22T09:00:00.797Z,101131.22
2023-01-22T09:01:03.994Z,101130.91
2023-01-22T09:02:10.092Z,101130.63
2023-01-22T09:03:13.313Z,101131.28
2023-01-22T09:04:18.873Z,101132.75
2023-01-22T09:05:21.463Z,101137.16
2023-01-22T09:06:24.126Z,101132.69
2023-01-22T09:07:29.205Z,101130.09
2023-01-22T09:08:32.073Z,101126.19
2023-01-22T09:09:35.483Z,101130.63
2023-01-22T09:10:38.015Z,101126.50
2023-01-22T09:11:41.104Z,101130.66
2023-01-22T09:12:43.689Z,101137.84
2023-01-22T09:13:46.233Z,101134.75
2023-01-22T09:14:48.857Z,101145.34
2023-01-22T09:15:51.393Z,101138.81
2023-01-22T09:16:53.998Z,101148.25
2023-01-22T09:17:56.949Z,101147.94
2023-01-22T09:18:59.751Z,101151.78
2023-01-22T09:20:02.255Z,101153.25
2023-01-22T09:21:05.807Z,101152.50
2023-01-22T09:22:08.273Z,101152.53
2023-01-22T09:23:10.882Z,101152.91
2023-01-22T09:24:13.583Z,101160.75
2023-01-22T09:25:16.519Z,101158.94
2023-01-22T09:26:19.118Z,101159.09
2023-01-22T09:27:21.617Z,101163.69
2023-01-22T09:28:26.731Z,101162.97
2023-01-22T09:29:29.310Z,101165.94
2023-01-22T09:30:32.487Z,101159.69
2023-01-22T09:31:37.998Z,101170.25
2023-01-22T09:32:41.496Z,101168.59
2023-01-22T09:33:44.517Z,101169.16
2023-01-22T09:34:47.018Z,101164.75
2023-01-22T09:35:49.454Z,101173.44
2023-01-22T09:36:52.028Z,101170.19
2023-01-22T09:37:55.282Z,101164.47
2023-01-22T09:38:57.871Z,101173.31
2023-01-22T09:40:00.430Z,101173.19
2023-01-22T09:41:11.840Z,101169.06
2023-01-22T09:42:31.489Z,101170.59
2023-01-22T09:43:39.691Z,101161.22
2023-01-22T09:44:46.602Z,101165.13
2023-01-22T09:45:55.731Z,101166.00
2023-01-22T09:47:41.667Z,101172.31
2023-01-22T09:48:48.206Z,101171.63
2023-01-22T09:50:04.427Z,101169.03
2023-01-22T09:51:07.200Z,101171.66
2023-01-22T09:52:11.193Z,101175.22
2023-01-22T09:53:17.022Z,101170.41
2023-01-22T09:54:19.792Z,101174.03
2023-01-22T09:55:24.880Z,101174.19
2023-01-22T09:56:43.715Z,101171.34
2023-01-22T09:57:52.213Z,101173.09
2023-01-22T09:58:58.430Z,101172.41
2023-01-22T10:00:01.386Z,101177.38
2023-01-22T10:01:14.842Z,101180.69
2023-01-22T10:02:23.503Z,101176.06
2023-01-22T10:03:40.636Z,101180.94
2023-01-22T10:04:46.823Z,101180.06
2023-01-22T10:05:56.595Z,101186.00
2023-01-22T10:07:02.150Z,101181.03
2023-01-22T10:08:13.674Z,101179.34
2023-01-22T10:09:19.066Z,101173.16
2023-01-22T10:10:27.017Z,101179.84
2023-01-22T10:11:29.625Z,101180.03
2023-01-22T10:12:33.065Z,101186.09
2023-01-22T10:13:37.641Z,101177.72
2023-01-22T10:14:45.031Z,101174.41
2023-01-22T10:15:49.306Z,101181.50
2023-01-22T10:16:51.824Z,101179.81
2023-01-22T10:17:57.573Z,101181.06
2023-01-22T10:19:42.933Z,101176.44
2023-01-22T10:20:47.914Z,101178.13
2023-01-22T10:22:09.759Z,101174.56
2023-01-22T10:23:19.402Z,101171.06
2023-01-22T10:24:22.103Z,101173.34
2023-01-22T10:25:28.209Z,101183.25
2023-01-22T10:26:56.363Z,101176.44
2023-01-22T10:28:02.567Z,101177.47
2023-01-22T10:29:21.293Z,101181.84
2023-01-22T10:30:28.185Z,101177.63
2023-01-22T10:31:36.504Z,101178.16
2023-01-22T10:32:39.100Z,101184.88
2023-01-22T10:33:44.792Z,101181.28
2023-01-22T10:35:04.470Z,101183.41
2023-01-22T10:36:15.554Z,101193.72
2023-01-22T10:37:19.720Z,101187.28
2023-01-22T10:38:28.423Z,101192.50
2023-01-22T10:39:45.306Z,101187.47
2023-01-22T10:40:53.831Z,101181.47
2023-01-22T10:42:02.502Z,101193.31
2023-01-22T10:43:15.495Z,101197.34
2023-01-22T10:44:20.071Z,101199.63
2023-01-22T10:45:24.301Z,101205.94
2023-01-22T10:46:26.759Z,101196.53
2023-01-22T10:47:29.401Z,101196.91
2023-01-22T10:48:37.274Z,101198.41
2023-01-22T10:49:42.186Z,101201.22
2023-01-22T10:50:45.629Z,101197.34
2023-01-22T10:51:53.893Z,101203.38
2023-01-22T10:52:58.750Z,101205.59
2023-01-22T10:54:01.821Z,101210.16
2023-01-22T10:55:05.324Z,101206.09
2023-01-22T10:56:12.755Z,101204.09
2023-01-22T10:57:21.252Z,101215.06
2023-01-22T10:58:26.543Z,101211.03
2023-01-22T10:59:31.019Z,101208.09
2023-01-22T11:00:50.960Z,101206.47
2023-01-22T11:02:13.177Z,101200.75
2023-01-22T11:03:24.120Z,101209.97
2023-01-22T11:04:33.127Z,101209.81
2023-01-22T11:05:37.279Z,101207.91
2023-01-22T11:06:50.474Z,101210.75
2023-01-22T11:07:58.643Z,101215.88
2023-01-22T11:09:33.185Z,101207.06
2023-01-22T11:10:56.903Z,101214.00
2023-01-22T11:12:24.675Z,101215.19
2023-01-22T11:13:47.916Z,101220.53
2023-01-22T11:15:02.751Z,101208.59
2023-01-22T11:16:17.769Z,101211.63
2023-01-22T11:17:27.101Z,101211.72
2023-01-22T11:18:35.667Z,101211.25
2023-01-22T11:19:46.414Z,101212.06
2023-01-22T11:20:57.737Z,101210.72
2023-01-22T11:22:01.321Z,101209.97
2023-01-22T11:23:09.501Z,101207.41
2023-01-22T11:24:16.248Z,101209.81
2023-01-22T11:25:18.955Z,101210.69
2023-01-22T11:26:37.321Z,101207.94
2023-01-22T11:28:00.151Z,101212.34
2023-01-22T11:29:39.323Z,101219.41
2023-01-22T11:30:59.544Z,101215.19
2023-01-22T11:32:20.818Z,101211.03
2023-01-22T11:33:26.456Z,101206.63
2023-01-22T11:34:53.567Z,101210.56
2023-01-22T11:36:22.522Z,101208.31
2023-01-22T11:37:40.076Z,101214.75
2023-01-22T11:39:09.350Z,101205.53
2023-01-22T11:40:27.815Z,101215.03
2023-01-22T11:41:59.171Z,101212.63
2023-01-22T11:43:20.885Z,101211.75
2023-01-22T11:44:45.183Z,101219.22
2023-01-22T11:46:20.205Z,101221.94
2023-01-22T11:47:36.769Z,101210.94
2023-01-22T11:49:04.887Z,101221.69
2023-01-22T11:50:33.586Z,101214.53
2023-01-22T11:51:48.748Z,101213.16
2023-01-22T11:53:46.875Z,101220.75
2023-01-22T11:55:09.112Z,101214.19
2023-01-22T11:56:30.148Z,101223.78
2023-01-22T11:57:32.854Z,101224.56
2023-01-22T11:58:52.305Z,101218.00
2023-01-22T12:00:07.021Z,101227.66
2023-01-22T12:01:57.603Z,101226.25
2023-01-22T12:03:15.381Z,101234.75
2023-01-22T12:04:36.674Z,101228.63
2023-01-22T12:05:59.027Z,101237.63
2023-01-22T12:07:33.145Z,101230.19
2023-01-22T12:08:44.895Z,101237.53
2023-01-22T12:10:04.988Z,101231.13
2023-01-22T12:11:21.388Z,101241.22
2023-01-22T12:12:46.135Z,101241.97
2023-01-22T12:13:57.294Z,101246.66
2023-01-22T12:15:41.043Z,101245.47
2023-01-22T12:16:54.717Z,101251.78
2023-01-22T12:18:44.498Z,101250.91
2023-01-22T12:19:50.186Z,101249.59
2023-01-22T12:21:20.965Z,101251.41
2023-01-22T12:22:38.758Z,101253.44
2023-01-22T12:23:44.923Z,101255.34
2023-01-22T12:24:59.869Z,101254.00
2023-01-22T12:26:17.617Z,101256.66
2023-01-22T12:27:29.461Z,101253.66
2023-01-22T12:28:50.525Z,101253.53
2023-01-22T12:30:01.820Z,101260.47
2023-01-22T12:31:26.403Z,101264.66
2023-01-22T12:32:36.246Z,101263.16
2023-01-22T12:33:42.074Z,101259.66
2023-01-22T12:34:51.851Z,101263.97
2023-01-22T12:35:58.296Z,101264.66
2023-01-22T12:37:04.602Z,101261.31
2023-01-22T12:38:39.370Z,101262.78
2023-01-22T12:40:22.281Z,101265.19
2023-01-22T12:41:33.079Z,101268.50
2023-01-22T12:42:46.159Z,101263.81
2023-01-22T12:43:54.435Z,101260.78
2023-01-22T12:45:18.145Z,101266.75